KIWD/IWD METAR and TAF weather

Enter ICAO airport designator
Station Type Date Time Source
KIWD METAR 2022/01/29 01:56 UTC NOAA

KIWD 290156Z AUTO 25008KT 9SM -SN OVC022 M13/M18 A3017 RMK AO2 SNE06B32 SLP252 P0000 T11281183 FZRANO


Station Type Date Time Source
KIWD Decoded METAR 2022/01/29 01:56 UTC NOAA

Ironwood, Gogebic-Iron County Airport, MI, United States (KIWD) 46-32N 090-08W
Jan 28, 2022 - 08:56 PM EST / 2022.01.29 0156 UTC
Wind: from the WSW (250 degrees) at 9 MPH (8 KT):0
Visibility: 9 mile(s):0
Sky conditions: overcast
Weather: light snow
Precipitation last hour: A trace
Temperature: 9.0 F (-12.8 C)
Windchill: -4 F (-20 C):1
Dew Point: -0.9 F (-18.3 C)
Relative Humidity: 63%
Pressure (altimeter): 30.17 in. Hg (1021 hPa)
ob: KIWD 290156Z AUTO 25008KT 9SM -SN OVC022 M13/M18 A3017 RMK AO2 SNE06B32 SLP252 P0000 T11281183 FZRANO
cycle: 2

Station Type Date Time Source
KIWD TAF 2022/01/28 22:18 UTC NOAA

TAF
AMD KIWD 282214Z 2822/2918 23008KT P6SM OVC025
FM291500 18005KT P6SM BKN045
FM291600 18005KT P6SM OVC060

Example: see airport list